Station info - map view · info · telemetry · weather · raw · status · beacons · messages · bulletins · browse · moving · my account
Callsign, ship name or locator: Clear       
It is possible to search using wildcards (*?) after a prefix. Example: OH*
APRS station KJ7SUS-9 - show graphs
Map loading...
Comment: 146.520MHz Toff???????????????????????
Mic-E message: In service
Location: 47°38.57' N 122°07.20' W - locator CN87WP54OG - show map - static map
6.4 miles Southeast bearing 155° from Kingsgate, King County, Washington, United States [?]
8.0 miles South bearing 165° from Woodinville, King County, Washington, United States
10.2 miles East bearing 76° from Seattle, King County, Washington, United States
79.4 miles Southeast bearing 133° from Victoria, British Columbia, Canada
Last position: 2021-08-02 00:14:22 EDT (1d 22h49m ago)
2021-08-01 21:14:22 PDT local time at Kingsgate, United States [?]
Altitude: 217 ft
Course:
Speed: 8 MPH
Device: Kenwood: TM-D710 (rig)
Last path: KJ7SUS-9>T7SXUW via TIGER*,WIDE1,WIDE2-2,qAR,WA7ZYW (good)
Positions stored: 4052
Packet rate: 28 seconds between packets on average during 1358 seconds.
This station is transmitting packets at a high rate, which can cause congestion in the APRS network.
Other SSIDs: KJ7SUS KJ7SUS-15
Stations near current position of KJ7SUS-9 - show more
callsign distance last heard - EDT      callsign distance last heard - EDT
FW24060.8 miles 148°2021-08-03 22:55:16 KJ7KOU1.6 miles 239°2021-07-31 12:15:12
N5IBU1.6 miles 158°2021-08-03 22:33:48 KJ7BIH-71.8 miles 235°2021-08-01 19:50:37
KG7RJJ2.1 miles 324°2021-07-31 23:15:27 KE7LET-42.2 miles 357°2021-08-02 14:50:40
N7CFO-102.4 miles 186°2021-08-03 22:48:56 N7CFO-112.4 miles 186°2021-08-03 22:48:57
N7WAA-52.5 miles 68°2021-07-24 19:33:44 COUNTING COUP3.1 miles 269°2021-08-02 15:33:25
N7IH A3.1 miles 255°2021-08-03 22:53:47 N7IH AD3.1 miles 255°2021-08-03 22:53:47
N7IH C3.1 miles 255°2021-08-03 22:53:47 N7IH B3.1 miles 255°2021-08-03 22:53:47
N7IH-A3.1 miles 255°2021-08-03 22:53:32 N7IH-B3.1 miles 255°2021-08-03 22:53:32
N7IH-C3.1 miles 255°2021-08-03 22:53:32 KU7M-73.4 miles 258°2021-07-24 21:24:59
K7REM-103.4 miles 356°2021-08-03 22:39:17 AB7QL-93.5 miles 234°2021-08-03 22:07:04
Stations which heard KJ7SUS-9 directly on radio –
callsign pkts first heard - EDT last heard longest (tx => rx) longest at - EDT
WW7RA 1 2021-08-01 21:51:38 2021-08-01 21:51:38 CN87XC > CN87ON 47.1 miles 311° 2021-08-01 21:51:38
W7PFR-1 24 2021-08-01 20:30:48 2021-08-01 23:42:04 CN87XL > CN86UU 44.1 miles 194° 2021-08-01 23:42:04
SOMTN 10 2021-08-01 20:31:05 2021-08-01 22:38:20 CN97BA > CN87HH 73.0 miles 288° 2021-08-01 22:28:59
MISION 1 2021-08-01 15:02:04 2021-08-01 15:02:04 CN96FV > CN97TG 59.1 miles 62° 2021-08-01 15:02:04
PACKWD 12 2021-08-01 15:01:22 2021-08-01 20:17:39 CN96FV > CN96EO 20.0 miles 197° 2021-08-01 15:01:22
SHRINR 42 2021-08-01 12:39:48 2021-08-01 17:18:16 CN96DS > CN96FT 9.9 miles 79° 2021-08-01 17:18:16
WW7CH-11 101 2021-08-01 15:38:39 2021-08-01 20:25:59 CN86WS > CN96CR 15.0 miles 92° 2021-08-01 20:25:59
WW7CH-12 13 2021-08-01 15:40:18 2021-08-01 20:19:40 CN86XS > CN96DS 13.2 miles 81° 2021-08-01 20:19:40
ERINB 3 2021-08-01 20:46:28 2021-08-01 23:11:59 CN86UU > CN87MQ 63.4 miles 331° 2021-08-01 20:46:28
TIGER 26 2021-08-01 20:40:33 2021-08-02 00:14:22 CN86VU > CN97AM 47.5 miles 15° 2021-08-01 20:40:33
W7ALK-13 10 2021-08-01 15:33:39 2021-08-01 19:00:17 CN96CS > CN96EO 12.9 miles 157° 2021-08-01 17:34:07
WA7VC-10 2 2021-08-01 21:14:40 2021-08-02 00:01:11 CN87UB > CN97DL 39.1 miles 43° 2021-08-01 21:14:40
W7NPC-10 6 2021-08-01 21:39:21 2021-08-02 00:10:52 CN97BA > CN87RP 54.8 miles 326° 2021-08-01 22:32:37
JUPITR 26 2021-08-01 20:37:14 2021-08-02 00:10:53 CN97BA > CN87MQ 70.0 miles 313° 2021-08-01 22:31:06
CRYSTL 62 2021-07-31 20:04:16 2021-08-01 23:29:21 CN87UB > CN96GW 38.2 miles 102° 2021-08-01 21:05:47
KA7WYR 4 2021-08-01 23:48:27 2021-08-01 23:56:05 CN87XM > CN87XN 3.2 miles 318° 2021-08-01 23:48:27
VCAPK 7 2021-08-01 20:31:00 2021-08-01 23:24:12 CN87XH > CN86KX 58.2 miles 247° 2021-08-01 23:24:12
N1SU-2 14 2021-08-01 23:51:43 2021-08-02 00:14:21 CN87WP > CN97AM 9.2 miles 141° 2021-08-02 00:14:21
BETHEL 11 2021-07-31 20:33:14 2021-07-31 21:27:21 CN97KA > CN96KR 22.4 miles 181° 2021-07-31 20:33:14
N7IEI-1 2 2021-08-01 23:57:38 2021-08-02 00:09:19 CN87WN > CN87UO 10.5 miles 280° 2021-08-01 23:57:38
W7DK 9 2021-08-01 20:37:13 2021-08-01 22:46:37 CN97BA > CN87SF 33.3 miles 301° 2021-08-01 22:28:57
WA7GMX-10 4 2021-08-01 21:42:21 2021-08-01 22:26:01 CN97BA > CN87QK 44.5 miles 313° 2021-08-01 22:26:01
WT0F-10 5 2021-08-01 23:41:07 2021-08-02 00:03:45 CN87WN > CN87XM 5.8 miles 132° 2021-08-02 00:03:45
KJ7DHF-10 4 2021-08-01 23:11:51 2021-08-01 23:43:45 CN97AE > CN87WI 11.4 miles 335° 2021-08-01 23:11:51
WA7ZYW 1 2021-08-02 00:01:11 2021-08-02 00:01:11 CN87WN > CN97BN 12.1 miles 102° 2021-08-02 00:01:11
AG7WI-2 12 2021-08-01 20:30:45 2021-08-01 22:31:05 CN97BA > CN86TX 22.3 miles 265° 2021-08-01 22:31:05

Only position packets which were originated by the station are shown here. The range statistics show some extra long hops, because some digipeaters do not correctly add themselves to the digipeater path. Please check the raw packets.
About this site
This page shows real-time information collected from the Automatic Position Reporting System Internet network (APRS-IS). APRS is used by amateur (ham) radio operators to transmit real-time position information, weather data, telemetry and messages over the radio. A vehicle equipped with a GPS receiver, a VHF transmitter or HF transceiver and a small computer device called a tracker transmits it's location, speed and course in a small data packet, which is then received by a nearby iGate receiving site which forwards the packet on the Internet. Systems connected to the Internet can send information on the APRS-IS without a radio transmitter, or collect and display information transmitted anywhere in the world.
User guide · FAQ · Blog · Discussion group · Linking to aprs.fi · AIS sites · Service status · Database statistics · Advertising on aprs.fi · Technical details · API · Change log · Planned changes · Credits and thanks · Terms Of Service · iPhone/iPad APRS